Time;durP1;ratioP1;P1;durP2;ratioP2;P2;SDS_P1;SDS_P2;PMS_P1;PMS_P2;Temp;Humidity;BMP_temperature;BMP_pressure;BME280_temperature;BME280_humidity;BME280_pressure;Samples;Min_cycle;Max_cycle;Signal;HPM_P1;HPM_P2
2022/04/29 00:01:36;;;;;;;;;;;5.20;86.30;;;;;;6159991;23;19990;-77
2022/04/29 00:04:02;;;;;;;;;;;5.50;86.00;;;;;;6159615;23;20021;-78
2022/04/29 00:06:28;;;;;;;;;;;5.20;87.80;;;;;;6159436;23;19916;-79
2022/04/29 00:08:53;;;;;;;;;;;5.10;87.00;;;;;;6158576;23;20377;-78
2022/04/29 00:11:20;;;;;;;;;;;5.10;87.20;;;;;;6186117;23;19958;-79
2022/04/29 00:13:48;;;;;;;;;;;5.10;85.50;;;;;;6160763;23;19967;-79
2022/04/29 00:16:13;;;;;;;;;;;5.00;87.10;;;;;;6186264;23;19916;-79
2022/04/29 00:18:39;;;;;;;;;;;5.10;87.50;;;;;;6161359;23;20227;-77
2022/04/29 00:21:05;;;;;;;;;;;5.10;87.30;;;;;;6163080;23;19916;-77
2022/04/29 00:23:30;;;;;;;;;;;5.20;87.20;;;;;;6192893;23;19952;-77
2022/04/29 00:25:56;;;;;;;;;;;5.00;86.80;;;;;;6176947;23;19943;-73
2022/04/29 00:28:22;;;;;;;;;;;5.00;87.70;;;;;;6152157;23;19987;-79
2022/04/29 00:30:48;;;;;;;;;;;5.10;86.90;;;;;;6136986;23;19919;-77
2022/04/29 00:33:13;;;;;;;;;;;5.00;87.60;;;;;;6136943;23;19912;-77
2022/04/29 00:35:39;;;;;;;;;;;5.30;87.80;;;;;;6161300;23;19919;-79
2022/04/29 00:38:05;;;;;;;;;;;5.00;88.10;;;;;;6136628;23;19916;-79
2022/04/29 00:40:31;;;;;;;;;;;5.00;84.70;;;;;;6161335;23;20298;-76
2022/04/29 00:42:57;;;;;;;;;;;5.00;87.90;;;;;;6161162;23;19975;-76
2022/04/29 00:45:24;;;;;;;;;;;5.20;88.00;;;;;;6160815;23;19938;-77
2022/04/29 00:47:53;;;;;;;;;;;4.80;88.20;;;;;;6161389;23;19966;-76
2022/04/29 00:50:20;;;;;;;;;;;4.80;88.20;;;;;;6161616;23;19917;-79
2022/04/29 00:52:48;;;;;;;;;;;4.80;88.40;;;;;;6161362;23;19990;-78
2022/04/29 00:55:14;;;;;;;;;;;4.80;87.60;;;;;;6155820;23;20330;-78
2022/04/29 00:57:45;;;;;;;;;;;4.90;87.70;;;;;;6181167;23;19916;-77
2022/04/29 01:00:14;;;;;;;;;;;4.80;88.20;;;;;;6156757;23;20268;-79
2022/04/29 01:02:41;;;;;;;;;;;4.80;88.90;;;;;;6181087;23;19912;-77
2022/04/29 01:05:09;;;;;;;;;;;4.90;88.50;;;;;;6155855;23;19919;-79
2022/04/29 01:07:36;;;;;;;;;;;4.70;88.20;;;;;;6155592;23;19936;-76
2022/04/29 01:10:02;;;;;;;;;;;4.90;87.90;;;;;;6156367;23;19913;-79
2022/04/29 01:12:30;;;;;;;;;;;4.90;88.00;;;;;;6131694;23;19912;-81
2022/04/29 01:14:57;;;;;;;;;;;5.10;87.90;;;;;;6156140;23;20043;-78
2022/04/29 01:17:23;;;;;;;;;;;5.00;88.50;;;;;;6181195;23;20335;-80
2022/04/29 01:19:49;;;;;;;;;;;5.30;88.30;;;;;;6156302;23;19924;-78
2022/04/29 01:22:15;;;;;;;;;;;5.00;88.10;;;;;;6131415;23;19917;-77
2022/04/29 01:24:41;;;;;;;;;;;5.00;88.00;;;;;;6180481;23;19924;-77
2022/04/29 01:27:10;;;;;;;;;;;5.00;88.10;;;;;;6156229;23;19943;-78
2022/04/29 01:29:42;;;;;;;;;;;4.90;88.50;;;;;;6156395;23;20614;-77
2022/04/29 01:32:11;;;;;;;;;;;4.90;88.10;;;;;;6162657;23;19913;-76
2022/04/29 01:34:37;;;;;;;;;;;4.90;88.60;;;;;;6196366;23;19924;-73
2022/04/29 01:37:04;;;;;;;;;;;5.00;88.40;;;;;;6171549;23;19991;-78
2022/04/29 01:39:29;;;;;;;;;;;4.90;88.40;;;;;;6130830;23;19922;-76
2022/04/29 01:41:55;;;;;;;;;;;5.30;89.00;;;;;;6155290;23;19952;-77
2022/04/29 01:44:20;;;;;;;;;;;4.90;88.60;;;;;;6130438;23;19924;-78
2022/04/29 01:46:46;;;;;;;;;;;4.90;88.00;;;;;;6131024;23;19919;-82
2022/04/29 01:49:12;;;;;;;;;;;5.30;88.50;;;;;;6180573;23;20386;-78
2022/04/29 01:51:37;;;;;;;;;;;5.10;88.00;;;;;;6155255;23;19944;-78
2022/04/29 01:54:09;;;;;;;;;;;4.90;88.00;;;;;;6158537;23;19974;-78
2022/04/29 01:56:35;;;;;;;;;;;4.90;88.30;;;;;;6184788;23;19916;-77
2022/04/29 01:59:01;;;;;;;;;;;5.20;88.20;;;;;;6160953;23;19923;-76
2022/04/29 02:01:28;;;;;;;;;;;4.90;88.90;;;;;;6136175;23;19916;-79
2022/04/29 02:03:56;;;;;;;;;;;4.80;88.40;;;;;;6160980;23;19917;-78
2022/04/29 02:06:21;;;;;;;;;;;4.80;88.10;;;;;;6185309;23;19920;-76
2022/04/29 02:08:48;;;;;;;;;;;4.90;88.50;;;;;;6160309;23;20020;-77
2022/04/29 02:11:13;;;;;;;;;;;4.90;88.50;;;;;;6159959;23;19917;-76
2022/04/29 02:13:39;;;;;;;;;;;4.90;88.50;;;;;;6110674;23;19992;-77
2022/04/29 02:16:05;;;;;;;;;;;4.70;88.90;;;;;;6160095;23;20334;-78
2022/04/29 02:18:30;;;;;;;;;;;4.70;89.10;;;;;;6160235;23;19919;-77
2022/04/29 02:20:56;;;;;;;;;;;4.70;86.70;;;;;;6160406;23;19920;-75
2022/04/29 02:23:21;;;;;;;;;;;5.00;89.40;;;;;;6185245;23;19987;-76
2022/04/29 02:25:47;;;;;;;;;;;4.60;88.80;;;;;;6135593;23;19916;-77
2022/04/29 02:28:13;;;;;;;;;;;4.70;88.70;;;;;;6160070;23;19956;-78
2022/04/29 02:30:40;;;;;;;;;;;4.60;89.20;;;;;;6136127;23;19916;-79
2022/04/29 02:33:07;;;;;;;;;;;4.70;87.80;;;;;;6160228;23;20274;-76
2022/04/29 02:35:32;;;;;;;;;;;4.60;88.60;;;;;;6159981;23;20315;-76
2022/04/29 02:37:58;;;;;;;;;;;4.60;87.20;;;;;;6160987;23;19918;-80
2022/04/29 02:40:24;;;;;;;;;;;4.60;89.40;;;;;;6117093;23;19920;-77
2022/04/29 02:42:50;;;;;;;;;;;4.60;88.20;;;;;;6177320;23;19912;-72
2022/04/29 02:45:15;;;;;;;;;;;4.80;88.00;;;;;;6171782;23;19966;-78
2022/04/29 02:47:41;;;;;;;;;;;4.80;88.60;;;;;;6160267;23;20350;-79
2022/04/29 02:50:07;;;;;;;;;;;4.60;88.70;;;;;;6185336;23;19947;-76
2022/04/29 02:52:32;;;;;;;;;;;4.70;89.00;;;;;;6135662;23;19966;-79
2022/04/29 02:54:58;;;;;;;;;;;4.70;88.70;;;;;;6154857;23;19919;-79
2022/04/29 02:57:23;;;;;;;;;;;4.70;88.90;;;;;;6130363;23;19927;-78
2022/04/29 02:59:49;;;;;;;;;;;4.70;89.00;;;;;;6179923;23;19963;-77
2022/04/29 03:02:15;;;;;;;;;;;4.70;89.20;;;;;;6155277;23;19912;-78
2022/04/29 03:04:40;;;;;;;;;;;4.80;88.70;;;;;;6139064;23;19909;-79
2022/04/29 03:07:06;;;;;;;;;;;4.70;88.50;;;;;;6158095;23;19905;-79
2022/04/29 03:09:31;;;;;;;;;;;4.60;89.10;;;;;;6182363;23;19909;-79
2022/04/29 03:11:57;;;;;;;;;;;4.70;89.00;;;;;;6162388;23;19923;-79
2022/04/29 03:14:22;;;;;;;;;;;4.80;87.70;;;;;;6155083;23;19920;-78
2022/04/29 03:16:48;;;;;;;;;;;4.60;88.90;;;;;;6129642;23;20231;-78
2022/04/29 03:19:14;;;;;;;;;;;4.80;89.50;;;;;;6154975;23;20378;-76
2022/04/29 03:21:39;;;;;;;;;;;4.50;89.70;;;;;;6130088;23;19944;-79
2022/04/29 03:24:05;;;;;;;;;;;4.50;88.80;;;;;;6156225;23;19923;-77
2022/04/29 03:26:31;;;;;;;;;;;4.50;85.80;;;;;;6155147;23;19966;-77
2022/04/29 03:28:56;;;;;;;;;;;4.60;88.00;;;;;;6154654;23;19921;-78
2022/04/29 03:31:22;;;;;;;;;;;4.60;88.70;;;;;;6154978;23;19917;-80
2022/04/29 03:33:48;;;;;;;;;;;4.50;88.40;;;;;;6155051;23;19971;-76
2022/04/29 03:36:14;;;;;;;;;;;4.90;88.40;;;;;;6154421;23;19948;-78
2022/04/29 03:38:40;;;;;;;;;;;4.60;89.30;;;;;;6154949;23;19921;-80
2022/04/29 03:41:06;;;;;;;;;;;4.40;88.80;;;;;;6179774;23;19955;-75
2022/04/29 03:43:32;;;;;;;;;;;4.80;89.30;;;;;;6130318;23;19923;-76
2022/04/29 03:45:58;;;;;;;;;;;4.40;89.00;;;;;;6181708;23;19917;-78
2022/04/29 03:48:23;;;;;;;;;;;4.40;89.20;;;;;;6160075;23;19920;-81
2022/04/29 03:50:49;;;;;;;;;;;4.70;89.90;;;;;;6147900;23;19923;-72
2022/04/29 03:53:14;;;;;;;;;;;4.40;89.40;;;;;;6164152;23;19943;-78
2022/04/29 03:55:40;;;;;;;;;;;4.50;89.70;;;;;;6153633;23;19913;-80
2022/04/29 03:58:06;;;;;;;;;;;4.50;90.10;;;;;;6128489;23;19920;-80
2022/04/29 04:00:32;;;;;;;;;;;4.50;90.20;;;;;;6153614;23;19983;-76
2022/04/29 04:02:58;;;;;;;;;;;5.00;90.30;;;;;;6154825;23;19917;-77
2022/04/29 04:05:24;;;;;;;;;;;4.60;89.80;;;;;;6177613;23;20344;-78
2022/04/29 04:07:50;;;;;;;;;;;4.60;89.40;;;;;;6155613;23;19987;-80
2022/04/29 04:10:15;;;;;;;;;;;4.80;89.60;;;;;;6130225;23;19921;-77
2022/04/29 04:12:41;;;;;;;;;;;4.60;89.60;;;;;;6154945;23;20027;-79
2022/04/29 04:15:07;;;;;;;;;;;4.50;89.10;;;;;;6154610;23;19912;-78
2022/04/29 04:17:33;;;;;;;;;;;4.70;89.70;;;;;;6153875;23;20231;-77
2022/04/29 04:19:58;;;;;;;;;;;4.70;90.20;;;;;;6155055;23;19983;-77
2022/04/29 04:22:24;;;;;;;;;;;4.70;90.10;;;;;;6130069;23;19913;-76
2022/04/29 04:24:49;;;;;;;;;;;4.70;90.20;;;;;;6129100;23;19913;-78
2022/04/29 04:27:15;;;;;;;;;;;4.80;90.00;;;;;;6154576;23;20283;-77
2022/04/29 04:29:40;;;;;;;;;;;5.50;90.20;;;;;;6154715;23;19919;-77
2022/04/29 04:32:06;;;;;;;;;;;4.80;89.90;;;;;;6154382;23;19917;-78
2022/04/29 04:34:50;;;;;;;;;;;4.80;90.00;;;;;;6154128;23;19916;-76
2022/04/29 04:37:17;;;;;;;;;;;4.80;90.10;;;;;;6154695;23;19927;-76
2022/04/29 04:39:43;;;;;;;;;;;4.80;87.90;;;;;;6179750;23;20320;-80
2022/04/29 04:42:08;;;;;;;;;;;4.80;88.30;;;;;;6154881;23;19991;-79
2022/04/29 04:44:34;;;;;;;;;;;4.70;89.50;;;;;;6154335;23;20019;-77
2022/04/29 04:46:59;;;;;;;;;;;4.70;89.50;;;;;;6154777;23;20320;-78
2022/04/29 04:49:25;;;;;;;;;;;4.70;90.00;;;;;;6154806;23;19975;-77
2022/04/29 04:51:51;;;;;;;;;;;4.80;90.10;;;;;;6154179;23;19940;-78
2022/04/29 04:54:16;;;;;;;;;;;4.80;89.50;;;;;;6153765;23;19993;-77
2022/04/29 04:56:42;;;;;;;;;;;4.80;90.00;;;;;;6160438;23;19916;-79
2022/04/29 04:59:07;;;;;;;;;;;5.00;89.80;;;;;;6138434;23;19912;-76
2022/04/29 05:01:33;;;;;;;;;;;5.30;89.80;;;;;;6167975;23;20015;-73
2022/04/29 05:03:58;;;;;;;;;;;5.00;89.60;;;;;;6171090;23;20312;-77
2022/04/29 05:06:24;;;;;;;;;;;5.10;89.60;;;;;;6130880;23;19944;-76
2022/04/29 05:08:50;;;;;;;;;;;5.20;89.20;;;;;;6130935;23;20277;-79
2022/04/29 05:11:15;;;;;;;;;;;5.70;89.80;;;;;;6131395;23;20034;-77
2022/04/29 05:13:41;;;;;;;;;;;5.50;89.90;;;;;;6156059;23;19913;-79
2022/04/29 05:16:06;;;;;;;;;;;5.60;89.10;;;;;;6155344;23;19919;-79
2022/04/29 05:18:32;;;;;;;;;;;5.50;89.30;;;;;;6156411;23;19916;-77
2022/04/29 05:20:59;;;;;;;;;;;5.60;89.70;;;;;;6155694;23;19923;-77
2022/04/29 05:23:25;;;;;;;;;;;5.60;88.30;;;;;;6156047;23;20330;-79
2022/04/29 05:25:51;;;;;;;;;;;5.60;87.10;;;;;;6155689;23;19913;-76
2022/04/29 05:28:16;;;;;;;;;;;5.80;89.20;;;;;;6155912;23;19913;-76
2022/04/29 05:30:42;;;;;;;;;;;5.60;90.10;;;;;;6131774;23;19964;-79
2022/04/29 05:33:08;;;;;;;;;;;6.20;90.10;;;;;;6180593;23;20325;-77
2022/04/29 05:35:35;;;;;;;;;;;5.70;87.50;;;;;;6155847;23;19923;-78
2022/04/29 05:38:01;;;;;;;;;;;5.80;87.60;;;;;;6180940;23;19917;-77
2022/04/29 05:43:10;;;;;;;;;;;6.10;89.50;;;;;;6155811;23;19916;-77
2022/04/29 05:45:36;;;;;;;;;;;5.90;89.50;;;;;;6131424;23;19917;-77
2022/04/29 05:48:02;;;;;;;;;;;6.00;89.70;;;;;;6132445;23;19916;-76
2022/04/29 05:50:28;;;;;;;;;;;6.10;88.90;;;;;;6156450;23;19967;-78
2022/04/29 05:52:54;;;;;;;;;;;6.60;88.60;;;;;;6180843;23;20320;-79
2022/04/29 05:55:23;;;;;;;;;;;6.30;88.30;;;;;;6131026;23;19912;-78
2022/04/29 05:57:48;;;;;;;;;;;6.40;88.50;;;;;;6180456;23;20263;-76
2022/04/29 06:03:50;;;;;;;;;;;6.60;88.40;;;;;;6130460;23;19940;-75
2022/04/29 06:06:32;;;;;;;;;;;7.00;88.40;;;;;;6126695;23;19917;-77
2022/04/29 06:08:57;;;;;;;;;;;6.90;87.80;;;;;;6163278;23;19944;-80
2022/04/29 06:11:24;;;;;;;;;;;7.10;87.70;;;;;;6181976;23;19908;-77
2022/04/29 06:13:53;;;;;;;;;;;7.60;86.90;;;;;;6149467;23;19916;-79
2022/04/29 06:16:26;;;;;;;;;;;7.40;86.30;;;;;;6155863;23;19920;-79
2022/04/29 06:18:51;;;;;;;;;;;7.50;84.10;;;;;;6155425;23;19939;-80
2022/04/29 06:21:19;;;;;;;;;;;7.60;84.20;;;;;;6155642;23;19920;-79
2022/04/29 06:23:48;;;;;;;;;;;7.80;83.50;;;;;;6154938;23;20332;-81
2022/04/29 06:26:14;;;;;;;;;;;7.90;83.20;;;;;;6155812;23;19913;-79
2022/04/29 06:28:40;;;;;;;;;;;8.00;81.00;;;;;;6155506;23;19917;-80
2022/04/29 06:31:06;;;;;;;;;;;8.10;81.10;;;;;;6155854;23;19969;-79
2022/04/29 06:33:33;;;;;;;;;;;8.10;82.50;;;;;;6155716;23;19912;-80
2022/04/29 06:36:01;;;;;;;;;;;8.30;81.00;;;;;;6130416;23;19913;-77
2022/04/29 06:38:27;;;;;;;;;;;8.30;80.40;;;;;;6155328;23;19913;-77
2022/04/29 06:40:55;;;;;;;;;;;8.30;79.70;;;;;;6155564;23;19939;-72
2022/04/29 06:53:57;;;;;;;;;;;8.20;79.60;;;;;;6039075;23;19913;-78
2022/04/29 06:56:22;;;;;;;;;;;8.40;79.20;;;;;;6014947;23;20389;-82
2022/04/29 06:58:49;;;;;;;;;;;8.40;79.10;;;;;;6076975;23;19921;-81
2022/04/29 07:01:14;;;;;;;;;;;8.50;77.90;;;;;;6160479;23;20212;-82
2022/04/29 07:03:40;;;;;;;;;;;8.50;77.80;;;;;;6185229;23;19970;-82
2022/04/29 07:06:06;;;;;;;;;;;8.60;78.10;;;;;;6160270;23;20331;-81
2022/04/29 07:08:32;;;;;;;;;;;8.70;76.80;;;;;;6161028;23;19922;-80
2022/04/29 07:10:58;;;;;;;;;;;8.80;76.70;;;;;;6161978;23;19912;-81
2022/04/29 07:13:24;;;;;;;;;;;9.00;75.90;;;;;;6188679;23;19924;-81
2022/04/29 07:15:50;;;;;;;;;;;9.20;76.70;;;;;;6162262;23;19912;-80
2022/04/29 07:18:18;;;;;;;;;;;9.30;75.00;;;;;;6171851;23;19901;-80
2022/04/29 07:20:44;;;;;;;;;;;9.40;74.00;;;;;;6188294;23;19905;-80
2022/04/29 07:23:09;;;;;;;;;;;9.60;74.00;;;;;;6188578;23;19929;-79
2022/04/29 07:25:35;;;;;;;;;;;9.80;72.90;;;;;;6212635;23;19959;-82
2022/04/29 07:28:00;;;;;;;;;;;9.70;73.40;;;;;;6167932;23;20215;-82
2022/04/29 07:30:29;;;;;;;;;;;9.80;71.90;;;;;;6160886;23;19952;-81
2022/04/29 07:32:54;;;;;;;;;;;9.90;73.90;;;;;;6171252;23;19939;-79
2022/04/29 07:43:34;;;;;;;;;;;10.30;70.10;;;;;;6160714;23;20353;-81
2022/04/29 07:46:02;;;;;;;;;;;10.60;69.80;;;;;;6134714;23;19912;-83
2022/04/29 07:48:27;;;;;;;;;;;10.50;68.00;;;;;;6159885;23;19912;-82
2022/04/29 07:50:53;;;;;;;;;;;10.50;68.80;;;;;;6184588;23;20231;-80
2022/04/29 07:53:18;;;;;;;;;;;10.60;66.20;;;;;;6159718;23;19912;-83
2022/04/29 07:55:47;;;;;;;;;;;10.30;66.80;;;;;;6179286;23;19917;-82
2022/04/29 07:58:12;;;;;;;;;;;10.50;67.00;;;;;;6155171;23;19925;-80
2022/04/29 08:00:38;;;;;;;;;;;10.60;66.60;;;;;;6154898;23;19952;-80
2022/04/29 08:03:04;;;;;;;;;;;10.70;67.80;;;;;;6180129;23;20315;-80
2022/04/29 08:05:30;;;;;;;;;;;10.70;64.80;;;;;;6154364;23;19912;-80
2022/04/29 08:07:59;;;;;;;;;;;10.60;65.00;;;;;;6155239;23;19960;-82
2022/04/29 08:10:27;;;;;;;;;;;10.70;65.40;;;;;;6130366;23;19919;-80
2022/04/29 08:12:53;;;;;;;;;;;10.70;66.50;;;;;;6155268;23;20311;-80
2022/04/29 08:15:19;;;;;;;;;;;10.80;65.40;;;;;;6154989;23;19913;-82
2022/04/29 08:17:45;;;;;;;;;;;10.70;65.40;;;;;;6166829;23;19949;-81
2022/04/29 08:20:11;;;;;;;;;;;10.70;65.70;;;;;;6182865;23;19932;-81
2022/04/29 08:22:36;;;;;;;;;;;10.70;64.80;;;;;;6182923;23;19905;-82
2022/04/29 08:25:03;;;;;;;;;;;10.60;65.10;;;;;;6182518;23;19905;-83
2022/04/29 08:27:28;;;;;;;;;;;10.50;65.80;;;;;;6170514;23;20035;-82
2022/04/29 08:29:56;;;;;;;;;;;10.50;64.80;;;;;;6180179;23;19917;-81
2022/04/29 08:32:22;;;;;;;;;;;10.40;65.30;;;;;;6157041;23;19951;-82
2022/04/29 08:34:48;;;;;;;;;;;10.30;64.60;;;;;;6131524;23;19919;-82
2022/04/29 08:37:18;;;;;;;;;;;10.20;65.00;;;;;;6132115;23;20303;-83
2022/04/29 08:39:44;;;;;;;;;;;10.10;64.20;;;;;;6157251;23;19913;-83
2022/04/29 08:42:10;;;;;;;;;;;10.00;64.20;;;;;;6132660;23;19913;-81
2022/04/29 08:44:36;;;;;;;;;;;10.20;64.90;;;;;;6156477;23;20362;-81
2022/04/29 08:47:04;;;;;;;;;;;10.10;65.20;;;;;;6132069;23;19913;-82
2022/04/29 08:49:31;;;;;;;;;;;10.30;64.30;;;;;;6156640;23;19912;-81
2022/04/29 08:51:57;;;;;;;;;;;10.20;64.00;;;;;;6156768;23;19950;-79
2022/04/29 08:59:57;;;;;;;;;;;10.20;65.70;;;;;;6156943;23;19913;-79
2022/04/29 09:02:50;;;;;;;;;;;10.10;65.80;;;;;;6107236;23;19912;-75
2022/04/29 09:05:39;;;;;;;;;;;10.00;65.60;;;;;;6176581;23;19967;-74
2022/04/29 09:08:57;;;;;;;;;;;10.00;66.60;;;;;;6177819;23;19912;-74
2022/04/29 09:11:48;;;;;;;;;;;10.00;67.40;;;;;;5988454;23;19914;-75
2022/04/29 09:14:59;;;;;;;;;;;;;;;;;;;;;
2022/04/29 09:17:45;;;;;;;;;;;9.80;67.10;;;;;;6048425;23;20320;-75
2022/04/29 09:20:25;;;;;;;;;;;9.80;67.20;;;;;;6098573;23;19912;-76
2022/04/29 09:26:25;;;;;;;;;;;9.80;67.30;;;;;;6118889;23;19920;-79
2022/04/29 09:29:17;;;;;;;;;;;9.90;67.40;;;;;;6107635;23;20276;-81
2022/04/29 09:31:55;;;;;;;;;;;9.90;66.10;;;;;;6112484;23;19957;-81
2022/04/29 09:34:21;;;;;;;;;;;9.80;66.50;;;;;;6129628;23;19990;-80
2022/04/29 09:36:53;;;;;;;;;;;9.80;66.00;;;;;;6129313;23;19925;-80
2022/04/29 09:39:28;;;;;;;;;;;9.70;65.70;;;;;;6108483;23;19917;-80
2022/04/29 09:42:06;;;;;;;;;;;9.90;65.40;;;;;;6109494;23;19948;-79
2022/04/29 09:44:33;;;;;;;;;;;10.00;65.50;;;;;;6154113;23;19966;-80
2022/04/29 09:47:08;;;;;;;;;;;10.10;65.70;;;;;;6155338;23;19916;-80
2022/04/29 09:50:03;;;;;;;;;;;10.10;66.10;;;;;;6130801;23;19936;-83
2022/04/29 09:56:09;;;;;;;;;;;10.20;65.20;;;;;;6062432;23;19925;-79
2022/04/29 09:59:10;;;;;;;;;;;10.30;64.60;;;;;;6157850;23;19920;-79
2022/04/29 10:01:36;;;;;;;;;;;10.40;64.30;;;;;;6135492;23;19956;-81
2022/04/29 10:04:02;;;;;;;;;;;10.50;64.50;;;;;;6160546;23;20327;-82
2022/04/29 10:06:29;;;;;;;;;;;10.50;64.20;;;;;;6160735;23;19939;-79
2022/04/29 10:08:59;;;;;;;;;;;10.50;64.00;;;;;;6160841;23;20316;-81
2022/04/29 10:11:25;;;;;;;;;;;10.60;64.00;;;;;;6161297;23;19912;-81
2022/04/29 10:14:04;;;;;;;;;;;10.50;63.20;;;;;;6160441;23;20239;-81
2022/04/29 10:16:42;;;;;;;;;;;10.60;63.30;;;;;;6160734;23;19945;-82
2022/04/29 10:22:25;;;;;;;;;;;10.60;62.30;;;;;;6101450;23;20336;-84
2022/04/29 10:24:51;;;;;;;;;;;10.70;63.30;;;;;;6100598;23;19913;-75
2022/04/29 10:27:31;;;;;;;;;;;10.80;62.50;;;;;;6095351;23;19917;-82
2022/04/29 10:30:05;;;;;;;;;;;10.90;61.60;;;;;;6047004;23;19917;-79
2022/04/29 10:32:50;;;;;;;;;;;10.80;61.70;;;;;;6071254;23;19913;-77
2022/04/29 10:38:47;;;;;;;;;;;10.80;63.10;;;;;;6022018;23;19929;-83
2022/04/29 10:41:27;;;;;;;;;;;11.10;62.00;;;;;;6059185;23;19913;-78
2022/04/29 10:44:04;;;;;;;;;;;11.00;62.70;;;;;;6053488;23;19913;-83
2022/04/29 10:46:45;;;;;;;;;;;11.10;61.20;;;;;;6076387;23;19913;-82
2022/04/29 10:49:32;;;;;;;;;;;11.20;61.50;;;;;;6060500;23;19913;-80
2022/04/29 10:52:22;;;;;;;;;;;11.20;61.00;;;;;;6071902;23;19937;-76
2022/04/29 10:55:12;;;;;;;;;;;11.30;60.70;;;;;;6095928;23;20297;-81
2022/04/29 10:57:47;;;;;;;;;;;11.20;61.40;;;;;;6085402;23;19971;-81
2022/04/29 11:00:13;;;;;;;;;;;11.40;61.00;;;;;;6131164;23;19913;-80
2022/04/29 11:02:39;;;;;;;;;;;11.30;62.00;;;;;;6106493;23;20319;-80
2022/04/29 11:05:06;;;;;;;;;;;11.40;61.00;;;;;;6106436;23;19912;-79
2022/04/29 11:07:45;;;;;;;;;;;11.30;60.80;;;;;;6082761;23;19913;-81
2022/04/29 11:13:57;;;;;;;;;;;11.40;61.40;;;;;;6095068;23;19956;-72
2022/04/29 11:16:42;;;;;;;;;;;11.40;61.50;;;;;;6104334;23;19917;-74
2022/04/29 11:19:21;;;;;;;;;;;11.40;62.10;;;;;;6129015;23;19917;-73
2022/04/29 11:24:47;;;;;;;;;;;11.40;61.50;;;;;;6154815;23;20395;-73
2022/04/29 11:27:31;;;;;;;;;;;11.10;62.10;;;;;;6105950;23;19987;-73
2022/04/29 11:30:06;;;;;;;;;;;11.00;62.60;;;;;;6128506;23;19916;-73
2022/04/29 11:32:38;;;;;;;;;;;10.90;62.80;;;;;;6130327;23;20311;-73
2022/04/29 11:35:06;;;;;;;;;;;10.80;63.20;;;;;;6105834;23;19912;-73
2022/04/29 11:37:38;;;;;;;;;;;10.70;63.40;;;;;;6106016;23;19916;-73
2022/04/29 11:40:12;;;;;;;;;;;10.60;63.20;;;;;;6106064;23;19924;-73
2022/04/29 11:42:48;;;;;;;;;;;10.50;64.70;;;;;;6104896;23;19919;-74
2022/04/29 11:45:13;;;;;;;;;;;10.60;64.70;;;;;;6129375;23;19913;-74
2022/04/29 11:47:40;;;;;;;;;;;10.40;65.70;;;;;;6105611;23;20312;-75
2022/04/29 11:50:06;;;;;;;;;;;10.60;66.70;;;;;;6130368;23;19928;-73
2022/04/29 11:52:33;;;;;;;;;;;10.80;65.70;;;;;;6127543;23;20312;-73
2022/04/29 11:54:58;;;;;;;;;;;10.70;64.60;;;;;;6105926;23;19912;-75
2022/04/29 11:57:33;;;;;;;;;;;10.70;64.90;;;;;;6179542;23;19923;-75
2022/04/29 12:00:11;;;;;;;;;;;10.90;65.30;;;;;;6159556;23;19912;-74
2022/04/29 12:02:50;;;;;;;;;;;11.20;64.60;;;;;;6133739;23;19947;-75
2022/04/29 12:05:27;;;;;;;;;;;11.20;63.50;;;;;;6140991;23;19919;-72
2022/04/29 12:07:57;;;;;;;;;;;11.30;63.40;;;;;;6140221;23;19912;-72
2022/04/29 12:10:50;;;;;;;;;;;11.40;65.30;;;;;;6161813;23;19923;-74
2022/04/29 12:13:28;;;;;;;;;;;11.30;62.90;;;;;;6135681;23;19923;-73
2022/04/29 12:16:07;;;;;;;;;;;11.40;63.20;;;;;;6112070;23;20319;-75
2022/04/29 12:18:46;;;;;;;;;;;11.50;62.20;;;;;;6182780;23;19925;-72
2022/04/29 12:21:21;;;;;;;;;;;11.50;62.30;;;;;;6182101;23;19913;-73
2022/04/29 12:23:49;;;;;;;;;;;11.60;62.40;;;;;;6141918;23;20226;-73
2022/04/29 12:26:18;;;;;;;;;;;11.50;61.30;;;;;;6161310;23;20323;-74
2022/04/29 12:28:59;;;;;;;;;;;11.80;63.10;;;;;;6160454;23;19928;-75
2022/04/29 12:37:21;;;;;;;;;;;11.70;60.30;;;;;;6163956;23;19912;-75
2022/04/29 14:02:03;;;;;;;;;;;11.00;67.90;;;;;;6134216;22;19923;-77
2022/04/29 14:08:29;;;;;;;;;;;11.30;65.50;;;;;;6095501;23;19945;-76
2022/04/29 14:11:18;;;;;;;;;;;11.10;66.00;;;;;;6072193;23;19984;-78
2022/04/29 14:13:56;;;;;;;;;;;11.20;66.20;;;;;;6036732;23;19921;-80
2022/04/29 14:16:24;;;;;;;;;;;11.40;65.70;;;;;;6044557;23;19988;-74
2022/04/29 14:25:46;;;;;;;;;;;11.10;65.60;;;;;;6046056;23;19951;-79
2022/04/29 17:59:08;;;;;;;;;;;;;;;;;;;;;
2022/04/29 18:02:00;;;;;;;;;;;9.70;68.90;;;;;;6216226;23;20039;-79
2022/04/29 18:05:03;;;;;;;;;;;9.60;69.90;;;;;;6165533;23;19987;-82
2022/04/29 18:07:32;;;;;;;;;;;9.60;69.50;;;;;;6190516;23;19912;-79
2022/04/29 18:10:17;;;;;;;;;;;9.60;69.60;;;;;;6163843;23;19990;-80
2022/04/29 18:16:42;;;;;;;;;;;9.40;70.50;;;;;;6126612;23;20266;-78
2022/04/29 18:19:37;;;;;;;;;;;9.40;70.60;;;;;;6161643;23;19916;-76
2022/04/29 18:22:49;;;;;;;;;;;9.30;71.00;;;;;;6040482;23;19921;-76
2022/04/29 18:25:33;;;;;;;;;;;9.10;71.10;;;;;;5915871;24;19915;-74
2022/04/29 18:28:18;;;;;;;;;;;9.20;71.90;;;;;;5976422;23;19914;-78
2022/04/29 18:30:45;;;;;;;;;;;9.10;71.90;;;;;;6014633;23;20354;-78
2022/04/29 18:33:18;;;;;;;;;;;9.10;72.10;;;;;;5991059;23;20381;-78
2022/04/29 18:35:46;;;;;;;;;;;9.00;72.40;;;;;;5990510;23;19930;-78
2022/04/29 18:38:21;;;;;;;;;;;8.90;72.80;;;;;;6013968;23;19986;-77
2022/04/29 18:40:53;;;;;;;;;;;8.90;72.40;;;;;;6013675;23;19914;-76
2022/04/29 18:43:18;;;;;;;;;;;8.80;72.80;;;;;;5999590;23;20376;-76
2022/04/29 18:46:12;;;;;;;;;;;9.00;73.50;;;;;;6017948;23;19956;-79
2022/04/29 19:20:22;;;;;;;;;;;8.40;76.30;;;;;;6111249;23;19994;-76
2022/04/29 19:26:56;;;;;;;;;;;8.30;77.40;;;;;;6184627;23;19911;-81
2022/04/29 19:29:50;;;;;;;;;;;8.20;77.00;;;;;;6153734;23;19913;-84
2022/04/29 19:32:16;;;;;;;;;;;8.10;76.90;;;;;;6105134;23;20188;-70
2022/04/29 20:29:28;;;;;;;;;;;7.60;79.10;;;;;;6161030;23;19943;-79
2022/04/29 20:31:54;;;;;;;;;;;7.60;79.50;;;;;;6137108;23;20024;-77
2022/04/29 20:34:20;;;;;;;;;;;7.60;79.10;;;;;;6136802;23;20480;-74
2022/04/29 20:37:23;;;;;;;;;;;;;;;;;;;;;
2022/04/29 20:44:12;;;;;;;;;;;7.60;79.10;;;;;;6074583;23;20409;-83
2022/04/29 20:46:39;;;;;;;;;;;7.50;79.70;;;;;;6100354;23;19955;-77
2022/04/29 20:49:05;;;;;;;;;;;7.70;80.30;;;;;;6125328;23;20378;-76
2022/04/29 20:51:40;;;;;;;;;;;7.40;80.90;;;;;;6161313;23;19920;-80
2022/04/29 20:54:27;;;;;;;;;;;7.30;81.20;;;;;;6162357;23;20478;-78
2022/04/29 20:57:16;;;;;;;;;;;;;;;;;;;;;
2022/04/29 21:06:48;;;;;;;;;;;7.10;81.60;;;;;;6108794;23;19920;-78
2022/04/29 21:53:20;;;;;;;;;;;6.70;83.70;;;;;;6201941;23;20277;-78
2022/04/29 21:55:53;;;;;;;;;;;6.70;83.90;;;;;;6165426;23;20319;-79
2022/04/29 21:58:40;;;;;;;;;;;;;;;;;;;;;
2022/04/29 22:01:23;;;;;;;;;;;6.60;84.10;;;;;;6220405;23;19943;-78
2022/04/29 22:03:51;;;;;;;;;;;6.70;82.80;;;;;;6195324;23;19961;-79
2022/04/29 22:06:17;;;;;;;;;;;6.70;83.30;;;;;;6194701;23;20354;-80
2022/04/29 22:08:54;;;;;;;;;;;6.70;83.60;;;;;;6195659;23;19984;-79
2022/04/29 22:11:23;;;;;;;;;;;6.70;84.30;;;;;;6195600;23;20234;-80
2022/04/29 22:13:57;;;;;;;;;;;6.70;84.40;;;;;;6195985;23;19970;-79
2022/04/29 22:16:31;;;;;;;;;;;6.80;83.80;;;;;;6220661;23;19912;-80
2022/04/29 22:18:56;;;;;;;;;;;6.90;84.70;;;;;;6195464;23;19911;-79
2022/04/29 22:21:32;;;;;;;;;;;6.70;84.60;;;;;;6195678;23;19926;-79
2022/04/29 22:24:03;;;;;;;;;;;6.70;84.40;;;;;;6194931;23;19911;-79
2022/04/29 22:26:30;;;;;;;;;;;6.70;84.60;;;;;;6220548;23;20253;-79
2022/04/29 22:29:00;;;;;;;;;;;6.70;84.60;;;;;;6195257;23;20413;-79
2022/04/29 22:31:36;;;;;;;;;;;;;;;;;;;;;
2022/04/29 22:34:02;;;;;;;;;;;6.90;84.40;;;;;;6219738;23;19926;-79
2022/04/29 22:36:28;;;;;;;;;;;6.60;85.20;;;;;;6195049;23;20231;-79
2022/04/29 22:39:17;;;;;;;;;;;6.50;84.70;;;;;;6194150;23;19994;-79
2022/04/29 22:41:48;;;;;;;;;;;6.70;85.00;;;;;;6219290;23;20273;-79
2022/04/29 22:44:22;;;;;;;;;;;6.50;84.30;;;;;;6195271;23;19911;-79
2022/04/29 22:46:48;;;;;;;;;;;6.40;84.00;;;;;;6195685;23;20361;-79
2022/04/29 22:49:13;;;;;;;;;;;6.40;84.50;;;;;;6209832;23;19912;-79
2022/04/29 22:51:41;;;;;;;;;;;6.30;84.20;;;;;;6220947;23;19956;-81
2022/04/29 22:54:10;;;;;;;;;;;6.40;84.00;;;;;;6242192;23;19920;-78
2022/04/29 22:56:38;;;;;;;;;;;6.30;84.00;;;;;;6218570;23;20375;-79
2022/04/29 22:59:04;;;;;;;;;;;6.60;84.30;;;;;;6196934;23;19923;-80
2022/04/29 23:01:41;;;;;;;;;;;6.20;83.90;;;;;;6190375;23;19912;-78
2022/04/29 23:04:07;;;;;;;;;;;6.20;84.40;;;;;;6189684;23;19912;-79
2022/04/29 23:06:40;;;;;;;;;;;6.60;84.50;;;;;;6190783;23;20346;-79
2022/04/29 23:09:15;;;;;;;;;;;6.20;84.30;;;;;;6193054;23;19951;-77
2022/04/29 23:11:44;;;;;;;;;;;6.40;85.10;;;;;;6202899;23;19912;-79
2022/04/29 23:14:12;;;;;;;;;;;6.40;86.30;;;;;;6214686;23;19912;-79
2022/04/29 23:16:49;;;;;;;;;;;6.40;86.40;;;;;;6189555;23;19919;-79
2022/04/29 23:19:22;;;;;;;;;;;6.20;85.70;;;;;;6164919;23;19922;-79